createdAt,value
2018-04-30T00:02:17.669Z,42.78
2018-04-30T00:04:45.879Z,43.18
2018-04-30T00:07:14.035Z,43.54
2018-04-30T00:09:42.201Z,43.33
2018-04-30T00:12:10.358Z,43.17
2018-04-30T00:14:38.524Z,43.40
2018-04-30T00:17:06.711Z,43.28
2018-04-30T00:19:34.862Z,43.63
2018-04-30T00:22:03.105Z,43.38
2018-04-30T00:24:31.259Z,43.35
2018-04-30T00:26:59.439Z,43.25
2018-04-30T00:29:27.618Z,43.55
2018-04-30T00:31:55.808Z,43.60
2018-04-30T00:34:23.947Z,43.41
2018-04-30T00:36:52.097Z,43.52
2018-04-30T00:39:20.273Z,43.52
2018-04-30T00:41:48.420Z,43.78
2018-04-30T00:44:16.566Z,43.62
2018-04-30T00:46:44.740Z,43.66
2018-04-30T00:49:12.904Z,43.80
2018-04-30T00:51:41.058Z,44.08
2018-04-30T00:54:10.364Z,44.18
2018-04-30T00:56:42.240Z,44.46
2018-04-30T00:59:17.950Z,44.87
2018-04-30T01:01:52.707Z,45.42
2018-04-30T01:04:20.889Z,45.83
2018-04-30T01:06:49.042Z,46.01
2018-04-30T01:09:23.276Z,46.27
2018-04-30T01:11:51.445Z,46.77
2018-04-30T01:14:19.608Z,46.88
2018-04-30T01:16:47.800Z,46.99
2018-04-30T01:19:15.942Z,47.23
2018-04-30T01:21:44.155Z,47.58
2018-04-30T01:24:12.307Z,47.71
2018-04-30T01:26:40.489Z,48.73
2018-04-30T01:29:08.658Z,48.57
2018-04-30T01:31:36.829Z,48.06
2018-04-30T01:34:04.983Z,48.17
2018-04-30T01:36:39.120Z,49.56
2018-04-30T01:39:07.275Z,51.72
2018-04-30T01:41:35.468Z,51.24
2018-04-30T01:44:03.632Z,52.95
2018-04-30T01:46:41.627Z,53.31
2018-04-30T01:49:09.790Z,53.69
2018-04-30T01:51:37.958Z,54.24
2018-04-30T01:54:06.150Z,54.25
2018-04-30T01:56:34.339Z,55.98
2018-04-30T01:59:02.501Z,56.12
2018-04-30T02:01:30.683Z,56.36
2018-04-30T02:03:59.578Z,56.64
2018-04-30T02:06:27.751Z,56.02
2018-04-30T02:08:55.905Z,56.44
2018-04-30T02:11:24.076Z,56.60
2018-04-30T02:13:53.047Z,58.22
2018-04-30T02:16:23.031Z,57.59
2018-04-30T02:18:51.198Z,57.69
2018-04-30T02:21:19.394Z,58.25
2018-04-30T02:23:47.552Z,58.38
2018-04-30T02:26:18.857Z,58.29
2018-04-30T02:28:47.029Z,58.35
2018-04-30T02:31:15.178Z,59.16
2018-04-30T02:33:53.149Z,59.18
2018-04-30T02:36:21.296Z,58.67
2018-04-30T02:38:49.471Z,59.02
2018-04-30T02:41:17.623Z,59.69
2018-04-30T02:43:45.773Z,59.20
2018-04-30T02:46:13.941Z,60.03
2018-04-30T02:48:42.100Z,60.12
2018-04-30T02:51:10.227Z,59.63
2018-04-30T02:53:38.391Z,60.34
2018-04-30T02:56:06.552Z,60.43
2018-04-30T02:58:34.693Z,60.21
2018-04-30T03:01:02.875Z,60.30
2018-04-30T03:03:31.064Z,60.51
2018-04-30T03:05:59.245Z,60.18
2018-04-30T03:08:27.385Z,59.93
2018-04-30T03:11:02.158Z,60.73
2018-04-30T03:13:30.280Z,60.16
2018-04-30T03:15:58.499Z,60.72
2018-04-30T03:18:26.670Z,59.98
2018-04-30T03:20:55.555Z,60.05
2018-04-30T03:23:23.734Z,60.45
2018-04-30T03:25:51.895Z,60.58
2018-04-30T03:28:20.073Z,61.53
2018-04-30T03:30:48.221Z,60.61
2018-04-30T03:33:22.841Z,61.38
2018-04-30T03:35:51.012Z,61.48
2018-04-30T03:38:19.145Z,61.34
2018-04-30T03:40:47.343Z,62.56
2018-04-30T03:43:15.489Z,60.67
2018-04-30T03:45:43.663Z,59.77
2018-04-30T03:48:11.801Z,57.93
2018-04-30T03:50:40.030Z,56.63
2018-04-30T03:53:16.480Z,56.44
2018-04-30T03:55:44.637Z,56.37
2018-04-30T03:58:12.778Z,56.65
2018-04-30T04:00:52.775Z,56.63
2018-04-30T04:03:33.318Z,56.73
2018-04-30T04:06:21.703Z,55.94
2018-04-30T04:08:49.899Z,54.46
2018-04-30T04:11:18.080Z,53.71
2018-04-30T04:13:46.218Z,52.71
2018-04-30T04:16:29.051Z,52.42
2018-04-30T04:18:57.766Z,53.90
2018-04-30T04:21:25.931Z,55.42
2018-04-30T04:23:54.229Z,56.52
2018-04-30T04:26:22.379Z,58.58
2018-04-30T04:28:50.650Z,59.81
2018-04-30T04:31:33.537Z,60.70
2018-04-30T04:34:01.703Z,61.53
2018-04-30T04:36:29.849Z,61.94
2018-04-30T04:38:58.024Z,62.35
2018-04-30T04:41:26.168Z,62.94
2018-04-30T04:43:56.010Z,63.15
2018-04-30T04:46:24.182Z,63.65
2018-04-30T04:48:52.353Z,63.62
2018-04-30T04:51:24.293Z,63.59
2018-04-30T04:53:52.459Z,63.99
2018-04-30T04:56:20.592Z,63.27
2018-04-30T04:58:48.747Z,62.54
2018-04-30T05:01:16.912Z,61.61
2018-04-30T05:03:48.213Z,59.71
2018-04-30T05:06:16.405Z,58.93
2018-04-30T05:08:44.677Z,56.75
2018-04-30T05:11:12.848Z,56.13
2018-04-30T05:13:40.986Z,55.59
2018-04-30T05:16:10.112Z,55.65
2018-04-30T05:18:38.318Z,55.01
2018-04-30T05:21:10.215Z,56.70
2018-04-30T05:23:38.383Z,56.98
2018-04-30T05:26:12.895Z,54.71
2018-04-30T05:28:41.099Z,52.39
2018-04-30T05:31:09.255Z,52.46
2018-04-30T05:33:37.421Z,52.54
2018-04-30T05:36:05.611Z,52.37
2018-04-30T05:38:39.772Z,51.60
2018-04-30T05:41:07.898Z,52.46
2018-04-30T05:43:36.054Z,52.45
2018-04-30T05:46:04.263Z,52.61
2018-04-30T05:48:32.391Z,51.41
2018-04-30T05:51:00.532Z,51.89
2018-04-30T05:53:28.697Z,52.00
2018-04-30T05:55:56.844Z,52.17
2018-04-30T05:58:25.012Z,51.71
2018-04-30T06:00:53.164Z,52.42
2018-04-30T06:03:21.327Z,52.46
2018-04-30T06:05:49.473Z,52.20
2018-04-30T06:08:17.633Z,53.58
2018-04-30T06:10:45.787Z,53.09
2018-04-30T06:13:33.618Z,53.03
2018-04-30T06:16:01.764Z,53.69
2018-04-30T06:18:29.939Z,53.63
2018-04-30T06:20:58.102Z,54.20
2018-04-30T06:23:26.314Z,53.21
2018-04-30T06:25:54.491Z,52.61
2018-04-30T06:28:22.642Z,53.54
2018-04-30T06:30:50.832Z,53.40
2018-04-30T06:33:18.997Z,53.61
2018-04-30T06:35:47.207Z,54.08
2018-04-30T06:38:15.312Z,55.11
2018-04-30T06:40:43.461Z,56.73
2018-04-30T06:43:12.899Z,59.14
2018-04-30T06:45:41.182Z,59.99
2018-04-30T06:48:09.383Z,59.62
2018-04-30T06:50:52.349Z,59.91
2018-04-30T06:53:20.526Z,60.49
2018-04-30T06:55:48.678Z,61.09
2018-04-30T06:58:16.841Z,58.93
2018-04-30T07:00:45.021Z,58.16
2018-04-30T07:03:13.166Z,58.45
2018-04-30T07:05:41.363Z,59.45
2018-04-30T07:08:17.308Z,60.43
2018-04-30T07:10:45.484Z,59.90
2018-04-30T07:13:13.652Z,59.93
2018-04-30T07:15:41.818Z,58.85
2018-04-30T07:18:20.447Z,58.64
2018-04-30T07:20:48.648Z,59.43
2018-04-30T07:23:18.429Z,58.98
2018-04-30T07:25:46.550Z,59.95
2018-04-30T07:28:14.720Z,59.91
2018-04-30T07:30:42.873Z,60.52
2018-04-30T07:33:11.130Z,59.95
2018-04-30T07:35:39.980Z,61.15
2018-04-30T07:38:08.137Z,61.10
2018-04-30T07:40:36.284Z,61.06
2018-04-30T07:43:04.421Z,60.82
2018-04-30T07:45:33.010Z,61.04
2018-04-30T07:48:01.148Z,62.83
2018-04-30T07:50:29.307Z,66.10
2018-04-30T08:02:29.392Z,69.26
2018-04-30T08:04:57.574Z,67.61
2018-04-30T08:07:25.718Z,68.98
2018-04-30T08:09:53.996Z,68.31
2018-04-30T08:12:22.195Z,68.82
2018-04-30T08:14:50.343Z,67.77
2018-04-30T08:17:18.506Z,67.04
2018-04-30T10:05:49.852Z,57.44
2018-04-30T10:08:18.025Z,56.84
2018-04-30T10:10:46.217Z,55.97
2018-04-30T10:13:14.424Z,54.98
2018-04-30T10:15:42.638Z,55.83
2018-04-30T10:18:11.106Z,58.75
2018-04-30T10:33:21.027Z,54.25
2018-04-30T10:35:50.799Z,52.70
2018-04-30T10:38:19.697Z,53.35
2018-04-30T10:40:47.843Z,52.54
2018-04-30T10:43:17.230Z,55.26
2018-04-30T10:45:45.452Z,53.46
2018-04-30T10:48:13.563Z,55.12
2018-04-30T10:50:41.745Z,55.00
2018-04-30T10:53:13.582Z,54.10
2018-04-30T10:55:41.729Z,54.26
2018-04-30T10:58:10.365Z,53.06
2018-04-30T11:00:38.537Z,54.82
2018-04-30T11:03:06.687Z,53.61
2018-04-30T11:05:41.153Z,54.29
2018-04-30T11:08:09.312Z,54.04
2018-04-30T11:10:37.439Z,56.66
2018-04-30T11:13:05.606Z,55.06
2018-04-30T11:15:33.734Z,51.85
2018-04-30T11:18:08.317Z,54.31
2018-04-30T11:20:36.472Z,54.88
2018-04-30T11:23:04.708Z,53.77
2018-04-30T11:25:32.885Z,53.14
2018-04-30T11:28:01.346Z,52.00
2018-04-30T11:30:29.508Z,55.01
2018-04-30T11:32:57.662Z,53.68
2018-04-30T11:35:31.703Z,53.63
2018-04-30T11:37:59.868Z,53.21
2018-04-30T11:40:34.475Z,52.47
2018-04-30T11:43:02.634Z,52.24
2018-04-30T11:45:30.837Z,51.59
2018-04-30T11:47:58.988Z,50.44
2018-04-30T11:50:27.170Z,52.54
2018-04-30T11:52:55.357Z,53.56
2018-04-30T11:55:23.556Z,53.33
2018-04-30T11:57:51.732Z,53.01
2018-04-30T12:00:19.888Z,51.33
2018-04-30T12:02:48.052Z,50.76
2018-04-30T12:05:16.208Z,51.48
2018-04-30T12:07:44.353Z,47.51
2018-04-30T12:10:15.633Z,48.31
2018-04-30T12:12:43.796Z,50.87
2018-04-30T12:15:12.464Z,46.33
2018-04-30T12:17:40.607Z,52.79
2018-04-30T12:20:08.801Z,49.30
2018-04-30T12:22:49.708Z,48.09
2018-04-30T12:25:17.904Z,48.31
2018-04-30T12:27:46.056Z,46.67
2018-04-30T12:30:14.348Z,48.43
2018-04-30T12:32:43.426Z,47.56
2018-04-30T12:35:24.919Z,46.10
2018-04-30T12:37:53.080Z,48.13
2018-04-30T12:40:21.223Z,47.73
2018-04-30T12:42:49.386Z,46.23
2018-04-30T12:45:27.818Z,47.70
2018-04-30T12:47:55.988Z,47.44
2018-04-30T12:50:24.143Z,47.11
2018-04-30T12:52:52.318Z,47.37
2018-04-30T12:55:20.502Z,47.47
2018-04-30T12:57:48.695Z,45.63
2018-04-30T13:00:16.868Z,44.38
2018-04-30T13:02:45.483Z,45.84
2018-04-30T13:05:13.676Z,45.65
2018-04-30T13:07:41.839Z,45.78
2018-04-30T13:10:13.095Z,45.61
2018-04-30T13:12:44.424Z,45.89
2018-04-30T13:15:12.635Z,44.36
2018-04-30T13:17:40.776Z,45.27
2018-04-30T13:20:22.765Z,44.24
2018-04-30T13:22:50.912Z,43.20
2018-04-30T13:25:19.064Z,43.85
2018-04-30T13:27:47.673Z,46.59
2018-04-30T13:30:15.857Z,47.79
2018-04-30T13:32:44.043Z,42.15
2018-04-30T13:35:15.417Z,46.64
2018-04-30T13:37:43.585Z,45.22
2018-04-30T13:40:11.737Z,44.47
2018-04-30T13:42:39.875Z,42.60
2018-04-30T13:45:08.036Z,41.98
2018-04-30T13:47:36.198Z,41.54
2018-04-30T13:50:04.369Z,43.29
2018-04-30T13:52:32.515Z,41.84
2018-04-30T13:55:00.690Z,43.43
2018-04-30T13:57:28.827Z,43.66
2018-04-30T13:59:57.028Z,42.87
2018-04-30T14:02:31.421Z,43.79
2018-04-30T14:04:59.650Z,41.82
2018-04-30T14:07:27.811Z,45.67
2018-04-30T14:09:55.971Z,43.18
2018-04-30T14:12:30.393Z,45.95
2018-04-30T14:14:58.555Z,43.49
2018-04-30T14:17:29.713Z,43.48
2018-04-30T14:19:57.847Z,42.91
2018-04-30T14:22:26.041Z,42.56
2018-04-30T14:24:54.189Z,43.03
2018-04-30T14:27:22.359Z,42.77
2018-04-30T14:29:50.517Z,42.61
2018-04-30T14:32:18.683Z,42.71
2018-04-30T14:34:46.848Z,42.93
2018-04-30T14:37:15.005Z,40.30
2018-04-30T14:39:43.177Z,41.44
2018-04-30T14:42:11.307Z,40.21
2018-04-30T14:44:39.524Z,39.62
2018-04-30T14:47:07.678Z,38.86
2018-04-30T14:49:35.835Z,37.21
2018-04-30T14:52:03.990Z,36.73
2018-04-30T14:54:32.145Z,36.59
2018-04-30T14:57:00.311Z,35.76
2018-04-30T14:59:28.455Z,32.94
2018-04-30T15:01:56.627Z,36.82
2018-04-30T15:04:24.827Z,35.09
2018-04-30T15:06:56.173Z,34.56
2018-04-30T15:09:24.329Z,34.08
2018-04-30T15:11:52.482Z,35.17
2018-04-30T15:14:22.297Z,33.95
2018-04-30T15:16:50.435Z,35.46
2018-04-30T15:19:18.636Z,35.24
2018-04-30T15:21:46.787Z,34.25
2018-04-30T15:24:28.686Z,33.37
2018-04-30T15:26:56.849Z,35.26
2018-04-30T15:29:35.228Z,35.04
2018-04-30T15:32:03.397Z,35.00
2018-04-30T15:34:35.252Z,35.71
2018-04-30T15:37:03.421Z,34.10
2018-04-30T15:39:31.554Z,33.68
2018-04-30T15:41:59.771Z,34.54
2018-04-30T15:44:40.566Z,34.94
2018-04-30T15:47:08.642Z,33.38
2018-04-30T15:49:36.793Z,35.16
2018-04-30T15:52:04.973Z,33.06
2018-04-30T15:54:33.131Z,32.64
2018-04-30T15:57:13.929Z,33.67
2018-04-30T15:59:48.286Z,33.41
2018-04-30T16:02:16.453Z,34.49
2018-04-30T16:04:44.601Z,34.98
2018-04-30T16:07:13.026Z,35.13
2018-04-30T16:09:41.158Z,35.12
2018-04-30T16:12:09.314Z,34.50
2018-04-30T16:14:37.500Z,35.37
2018-04-30T16:17:05.654Z,36.67
2018-04-30T16:19:33.795Z,37.44
2018-04-30T16:22:01.985Z,37.35
2018-04-30T16:24:30.155Z,37.31
2018-04-30T16:26:58.295Z,37.75
2018-04-30T16:29:26.452Z,37.48
2018-04-30T16:31:54.598Z,38.18
2018-04-30T16:34:25.522Z,38.05
2018-04-30T16:36:53.660Z,38.61
2018-04-30T16:39:21.812Z,40.07
2018-04-30T16:41:49.986Z,40.01
2018-04-30T16:44:27.838Z,40.37
2018-04-30T16:46:56.004Z,40.85
2018-04-30T16:49:24.150Z,41.35
2018-04-30T16:51:52.326Z,42.57
2018-04-30T16:54:20.482Z,40.70
2018-04-30T16:56:48.638Z,40.91
2018-04-30T16:59:16.780Z,42.71
2018-04-30T17:01:44.930Z,41.45
2018-04-30T17:04:13.126Z,42.08
2018-04-30T17:06:41.266Z,42.19
2018-04-30T17:09:09.460Z,42.95
2018-04-30T17:11:38.503Z,44.37
2018-04-30T17:14:06.667Z,42.52
2018-04-30T17:16:34.826Z,43.98
2018-04-30T17:19:02.984Z,42.90
2018-04-30T17:21:31.149Z,42.18
2018-04-30T17:24:01.924Z,42.16
2018-04-30T17:26:32.491Z,42.04
2018-04-30T17:29:00.630Z,42.60
2018-04-30T17:31:28.811Z,41.98
2018-04-30T17:33:59.049Z,43.52
2018-04-30T17:36:27.248Z,42.32
2018-04-30T17:38:55.378Z,44.78
2018-04-30T17:41:23.532Z,44.45
2018-04-30T17:43:51.688Z,43.84
2018-04-30T17:46:19.835Z,44.81
2018-04-30T17:48:47.985Z,45.08
2018-04-30T17:51:16.156Z,46.56
2018-04-30T17:53:44.339Z,47.79
2018-04-30T17:56:12.472Z,46.51
2018-04-30T17:58:40.722Z,47.21
2018-04-30T18:03:41.980Z,48.01
2018-04-30T18:06:10.903Z,48.71
2018-04-30T18:08:39.054Z,49.36
2018-04-30T18:11:08.066Z,50.05
2018-04-30T18:13:36.195Z,51.84
2018-04-30T18:16:04.400Z,52.44
2018-04-30T18:18:32.578Z,52.51
2018-04-30T18:21:00.742Z,51.22
2018-04-30T18:23:28.891Z,57.03
2018-04-30T18:25:57.063Z,62.74
2018-04-30T18:28:29.341Z,65.29
2018-04-30T18:30:58.804Z,64.73
2018-04-30T18:33:26.967Z,66.60
2018-04-30T18:35:55.114Z,66.56
2018-04-30T18:38:23.289Z,67.02
2018-04-30T18:40:51.433Z,65.40
2018-04-30T18:43:19.604Z,66.25
2018-04-30T18:45:47.787Z,67.83
2018-04-30T18:48:15.953Z,69.11
2018-04-30T18:50:44.129Z,67.64
2018-04-30T18:53:12.550Z,66.60
2018-04-30T18:55:40.712Z,68.16
2018-04-30T18:58:08.851Z,66.35
2018-04-30T19:00:37.072Z,66.70
2018-04-30T19:03:05.223Z,68.53
2018-04-30T19:05:33.409Z,66.17
2018-04-30T19:08:01.715Z,67.40
2018-04-30T19:10:37.394Z,67.34
2018-04-30T19:13:05.609Z,70.26
2018-04-30T19:15:33.732Z,71.11
2018-04-30T19:18:01.958Z,72.99
2018-04-30T19:20:30.102Z,71.68
2018-04-30T19:22:58.286Z,72.36
2018-04-30T19:25:26.430Z,71.79
2018-04-30T19:27:54.737Z,71.84
2018-04-30T19:30:22.903Z,74.11
2018-04-30T19:32:51.064Z,74.75
2018-04-30T19:35:19.236Z,74.57
2018-04-30T19:37:47.386Z,73.96
2018-04-30T19:40:16.966Z,74.71
2018-04-30T19:42:45.136Z,75.56
2018-04-30T19:45:20.343Z,74.14
2018-04-30T19:47:48.469Z,73.77
2018-04-30T19:50:19.761Z,75.48
2018-04-30T19:52:47.917Z,76.66
2018-04-30T19:55:16.098Z,76.71
2018-04-30T19:57:44.244Z,77.52
2018-04-30T20:00:12.425Z,78.17
2018-04-30T20:02:40.576Z,77.18
2018-04-30T20:05:08.745Z,77.85
2018-04-30T20:07:36.934Z,77.38
2018-04-30T20:10:05.087Z,76.47
2018-04-30T20:12:33.262Z,77.37
2018-04-30T20:15:01.415Z,76.74
2018-04-30T20:17:29.635Z,76.89
2018-04-30T20:19:57.786Z,78.27
2018-04-30T20:22:25.967Z,78.83
2018-04-30T20:24:55.279Z,79.55
2018-04-30T20:27:23.420Z,80.73
2018-04-30T20:29:51.669Z,80.58
2018-04-30T20:32:19.810Z,80.16
2018-04-30T20:34:48.028Z,79.37
2018-04-30T20:37:19.966Z,81.05
2018-04-30T20:39:48.168Z,81.98
2018-04-30T20:42:19.808Z,82.35
2018-04-30T20:44:47.953Z,81.66
2018-04-30T20:47:16.186Z,81.70
2018-04-30T20:49:44.392Z,81.08
2018-04-30T20:52:12.550Z,79.28
2018-04-30T20:54:40.705Z,79.97
2018-04-30T20:57:08.855Z,81.06
2018-04-30T20:59:36.996Z,81.49
2018-04-30T21:02:05.173Z,81.27
2018-04-30T21:04:33.313Z,81.83
2018-04-30T21:07:01.505Z,82.15
2018-04-30T21:09:29.648Z,81.82
2018-04-30T21:11:57.780Z,81.73
2018-04-30T21:14:25.970Z,81.65
2018-04-30T21:16:54.143Z,82.23
2018-04-30T21:19:22.307Z,82.34
2018-04-30T21:21:50.462Z,80.38
2018-04-30T21:24:19.807Z,79.04
2018-04-30T21:26:47.890Z,80.78
2018-04-30T21:29:17.103Z,81.22
2018-04-30T21:31:45.236Z,80.43
2018-04-30T21:34:13.401Z,80.97
2018-04-30T21:36:41.571Z,80.74
2018-04-30T21:39:09.716Z,80.23
2018-04-30T21:41:43.810Z,80.34
2018-04-30T21:44:11.947Z,79.42
2018-04-30T21:46:40.207Z,79.37
2018-04-30T21:49:08.353Z,77.76
2018-04-30T21:51:38.328Z,76.24
2018-04-30T21:54:06.500Z,75.65
2018-04-30T21:56:34.647Z,74.98
2018-04-30T21:59:02.815Z,72.03
2018-04-30T22:01:30.947Z,72.23
2018-04-30T22:03:59.140Z,72.10
2018-04-30T22:06:27.275Z,72.45
2018-04-30T22:08:55.454Z,70.47
2018-04-30T22:11:23.596Z,71.89
2018-04-30T22:13:53.596Z,72.89
2018-04-30T22:16:21.778Z,71.67
2018-04-30T22:18:53.769Z,72.41
2018-04-30T22:21:21.939Z,74.29
2018-04-30T22:23:50.101Z,71.07
2018-04-30T22:26:18.357Z,71.60
2018-04-30T22:28:46.499Z,72.67
2018-04-30T22:31:14.683Z,73.91
2018-04-30T22:33:42.962Z,76.87
2018-04-30T22:36:11.121Z,77.50
2018-04-30T22:38:39.290Z,76.50
2018-04-30T22:41:07.416Z,77.18
2018-04-30T22:43:35.578Z,78.12
2018-04-30T22:46:03.728Z,78.37
2018-04-30T22:48:32.294Z,78.20
2018-04-30T22:51:00.449Z,78.96
2018-04-30T22:53:28.615Z,79.40
2018-04-30T22:55:56.771Z,79.88
2018-04-30T22:58:24.925Z,79.84
2018-04-30T23:00:53.101Z,80.22
2018-04-30T23:03:21.237Z,79.45
2018-04-30T23:05:49.428Z,78.37
2018-04-30T23:08:17.574Z,79.16
2018-04-30T23:10:45.761Z,78.23
2018-04-30T23:13:13.919Z,79.47
2018-04-30T23:15:42.070Z,78.65
2018-04-30T23:18:10.263Z,77.51
2018-04-30T23:23:16.890Z,76.28
2018-04-30T23:25:45.038Z,76.81
2018-04-30T23:28:13.206Z,76.61
2018-04-30T23:30:41.360Z,75.79
2018-04-30T23:33:12.875Z,76.30
2018-04-30T23:35:41.046Z,77.83
2018-04-30T23:38:09.197Z,77.52
2018-04-30T23:40:37.365Z,77.05
2018-04-30T23:43:05.532Z,78.27
2018-04-30T23:45:33.706Z,77.96
2018-04-30T23:48:01.866Z,77.00
2018-04-30T23:50:30.004Z,76.68
2018-04-30T23:52:59.116Z,77.00
2018-04-30T23:55:27.308Z,76.89
2018-04-30T23:57:58.430Z,75.68
